createdAt,value
2022-08-03T00:01:00.254Z,99.90
2022-08-03T00:06:05.131Z,99.90
2022-08-03T00:11:08.706Z,99.90
2022-08-03T00:16:13.482Z,99.90
2022-08-03T00:21:16.705Z,99.90
2022-08-03T00:26:20.047Z,99.90
2022-08-03T00:31:44.928Z,99.90
2022-08-03T00:36:48.029Z,99.90
2022-08-03T00:41:51.371Z,99.90
2022-08-03T00:46:56.114Z,99.90
2022-08-03T00:52:00.742Z,99.90
2022-08-03T00:57:14.959Z,99.90
2022-08-03T01:02:19.969Z,99.90
2022-08-03T01:07:35.099Z,99.90
2022-08-03T01:12:44.401Z,99.90
2022-08-03T01:17:56.299Z,99.90
2022-08-03T01:23:11.375Z,99.90
2022-08-03T01:28:30.000Z,99.90
2022-08-03T01:33:38.635Z,99.90
2022-08-03T01:38:44.953Z,99.90
2022-08-03T01:44:18.104Z,99.90
2022-08-03T01:49:19.531Z,99.90
2022-08-03T01:54:25.088Z,99.90
2022-08-03T01:59:30.358Z,99.90
2022-08-03T02:04:37.319Z,99.90
2022-08-03T02:09:42.763Z,99.90
2022-08-03T02:14:48.285Z,99.90
2022-08-03T02:19:53.361Z,99.90
2022-08-03T02:24:57.058Z,99.90
2022-08-03T02:30:06.545Z,99.90
2022-08-03T02:35:16.414Z,99.90
2022-08-03T02:40:24.722Z,99.90
2022-08-03T02:45:29.887Z,99.90
2022-08-03T02:50:36.427Z,99.90
2022-08-03T02:55:43.138Z,99.90
2022-08-03T03:00:52.300Z,99.90
2022-08-03T03:05:57.981Z,99.90
2022-08-03T03:11:03.299Z,99.90
2022-08-03T03:16:08.060Z,99.90
2022-08-03T03:21:13.405Z,99.90
2022-08-03T03:26:17.965Z,99.90
2022-08-03T03:31:21.297Z,99.90
2022-08-03T03:36:26.151Z,99.90
2022-08-03T03:41:30.037Z,99.90
2022-08-03T03:46:37.259Z,99.90
2022-08-03T03:51:41.879Z,99.90
2022-08-03T03:56:45.281Z,99.90
2022-08-03T04:01:48.794Z,99.90
2022-08-03T04:07:21.611Z,99.90
2022-08-03T04:12:27.681Z,99.90
2022-08-03T04:17:31.978Z,99.90
2022-08-03T04:22:39.835Z,99.90
2022-08-03T04:27:43.667Z,99.90
2022-08-03T04:32:51.823Z,99.90
2022-08-03T04:37:58.134Z,99.90
2022-08-03T04:43:03.070Z,99.90
2022-08-03T04:48:07.141Z,99.90
2022-08-03T04:53:12.561Z,99.90
2022-08-03T04:58:19.860Z,99.90
2022-08-03T05:03:24.991Z,99.90
2022-08-03T05:08:30.007Z,99.90
2022-08-03T05:13:35.019Z,99.90
2022-08-03T05:18:38.425Z,99.90
2022-08-03T05:23:43.068Z,99.90
2022-08-03T05:28:50.970Z,99.90
2022-08-03T05:33:55.078Z,99.90
2022-08-03T05:39:02.791Z,99.90
2022-08-03T05:44:06.542Z,99.90
2022-08-03T05:49:10.815Z,99.90
2022-08-03T05:54:16.083Z,99.90
2022-08-03T05:59:37.544Z,99.90
2022-08-03T06:04:42.023Z,99.90
2022-08-03T06:10:35.229Z,99.90
2022-08-03T06:15:11.740Z,99.90
2022-08-03T06:20:18.762Z,99.90
2022-08-03T06:25:23.729Z,99.90
2022-08-03T06:30:27.419Z,99.90
2022-08-03T06:35:30.667Z,94.60
2022-08-03T06:40:42.213Z,90.00
2022-08-03T06:45:47.613Z,86.70
2022-08-03T06:50:51.257Z,85.20
2022-08-03T06:55:55.901Z,82.50
2022-08-03T07:00:59.371Z,81.40
2022-08-03T07:06:03.504Z,80.80
2022-08-03T07:11:10.147Z,78.80
2022-08-03T07:16:13.549Z,74.80
2022-08-03T07:21:17.217Z,74.00
2022-08-03T07:26:21.942Z,74.20
2022-08-03T07:36:52.414Z,76.00
2022-08-03T07:41:57.038Z,75.50
2022-08-03T07:47:03.241Z,75.10
2022-08-03T07:58:03.151Z,78.50
2022-08-03T08:03:06.588Z,74.50
2022-08-03T08:08:12.955Z,74.60
2022-08-03T08:13:17.527Z,75.60
2022-08-03T08:18:20.843Z,75.20
2022-08-03T08:23:43.645Z,72.00
2022-08-03T08:28:49.279Z,72.80
2022-08-03T08:34:07.696Z,72.80
2022-08-03T08:39:13.740Z,73.60
2022-08-03T08:44:26.674Z,74.70
2022-08-03T08:49:34.005Z,73.20
2022-08-03T08:54:41.923Z,71.50
2022-08-03T08:59:48.041Z,69.30
2022-08-03T09:04:53.388Z,73.30
2022-08-03T09:10:12.730Z,73.80
2022-08-03T09:15:23.454Z,74.20
2022-08-03T09:20:28.664Z,72.90
2022-08-03T09:25:36.080Z,77.20
2022-08-03T09:30:43.060Z,72.60
2022-08-03T09:35:57.317Z,70.60
2022-08-03T09:41:01.141Z,73.00
2022-08-03T09:46:07.817Z,70.40
2022-08-03T09:51:13.111Z,69.00
2022-08-03T09:56:35.684Z,71.80
2022-08-03T10:01:45.440Z,71.90
2022-08-03T10:07:04.674Z,70.20
2022-08-03T10:12:12.392Z,72.60
2022-08-03T10:17:17.194Z,74.90
2022-08-03T10:22:26.219Z,73.90
2022-08-03T10:27:33.661Z,76.10
2022-08-03T10:32:43.265Z,75.80
2022-08-03T10:37:56.908Z,75.20
2022-08-03T10:43:13.165Z,80.50
2022-08-03T10:48:19.616Z,78.30
2022-08-03T10:53:36.577Z,81.00
2022-08-03T10:58:57.077Z,76.70
2022-08-03T11:04:23.297Z,80.80
2022-08-03T11:09:27.139Z,77.60
2022-08-03T11:14:47.247Z,77.70
2022-08-03T11:19:57.400Z,77.20
2022-08-03T11:25:02.281Z,80.00
2022-08-03T11:30:08.163Z,77.30
2022-08-03T11:35:16.094Z,78.20
2022-08-03T11:40:38.921Z,80.70
2022-08-03T11:46:01.082Z,77.00
2022-08-03T11:51:08.601Z,78.10
2022-08-03T11:56:12.743Z,77.60
2022-08-03T12:01:22.679Z,76.20
2022-08-03T12:06:27.876Z,74.80
2022-08-03T12:11:31.445Z,77.50
2022-08-03T12:16:34.693Z,77.10
2022-08-03T12:21:56.877Z,78.10
2022-08-03T12:27:00.791Z,77.70
2022-08-03T12:32:04.473Z,77.00
2022-08-03T12:37:19.269Z,77.60
2022-08-03T12:42:32.588Z,77.70
2022-08-03T12:47:51.164Z,77.00
2022-08-03T12:52:56.727Z,76.80
2022-08-03T12:58:00.194Z,77.90
2022-08-03T13:03:39.796Z,78.10
2022-08-03T13:08:30.789Z,76.50
2022-08-03T13:13:41.271Z,76.50
2022-08-03T13:18:46.653Z,75.40
2022-08-03T13:23:52.803Z,75.20
2022-08-03T13:28:56.122Z,76.30
2022-08-03T13:33:59.779Z,76.40
2022-08-03T13:39:05.936Z,77.20
2022-08-03T13:44:29.289Z,76.80
2022-08-03T13:49:32.878Z,76.30
2022-08-03T13:54:37.507Z,76.60
2022-08-03T13:59:40.803Z,76.90
2022-08-03T14:04:44.094Z,74.00
2022-08-03T14:09:48.859Z,73.90
2022-08-03T14:14:52.180Z,73.90
2022-08-03T14:19:55.542Z,75.60
2022-08-03T14:25:02.562Z,77.60
2022-08-03T14:30:09.390Z,74.60
2022-08-03T14:35:12.647Z,74.70
2022-08-03T14:40:18.381Z,76.80
2022-08-03T14:45:21.691Z,75.20
2022-08-03T14:50:30.374Z,75.70
2022-08-03T14:55:50.748Z,76.50
2022-08-03T15:00:55.978Z,76.40
2022-08-03T15:05:59.324Z,75.80
2022-08-03T15:11:11.863Z,75.70
2022-08-03T15:16:29.940Z,75.60
2022-08-03T15:21:47.290Z,76.60
2022-08-03T15:26:52.765Z,76.40
2022-08-03T15:31:56.069Z,77.60
2022-08-03T15:36:59.445Z,76.40
2022-08-03T15:42:04.193Z,78.80
2022-08-03T15:47:07.639Z,77.60
2022-08-03T15:52:14.654Z,77.10
2022-08-03T15:57:27.765Z,75.70
2022-08-03T16:02:34.234Z,75.80
2022-08-03T16:08:02.892Z,77.20
2022-08-03T16:13:09.014Z,77.40
2022-08-03T16:18:12.458Z,78.80
2022-08-03T16:23:18.706Z,78.90
2022-08-03T16:29:23.269Z,79.40
2022-08-03T16:34:52.864Z,80.60
2022-08-03T16:39:58.197Z,79.30
2022-08-03T16:45:04.284Z,79.70
2022-08-03T16:50:14.281Z,79.90
2022-08-03T16:55:48.728Z,80.00
2022-08-03T17:00:47.613Z,80.60
2022-08-03T17:05:54.427Z,81.00
2022-08-03T17:11:08.135Z,81.50
2022-08-03T17:16:15.112Z,81.40
2022-08-03T17:21:23.943Z,81.60
2022-08-03T17:26:28.476Z,82.30
2022-08-03T17:31:49.086Z,83.20
2022-08-03T17:37:04.062Z,84.60
2022-08-03T17:42:24.095Z,85.00
2022-08-03T17:47:42.881Z,85.30
2022-08-03T17:52:50.681Z,85.70
2022-08-03T17:58:08.669Z,86.30
2022-08-03T18:03:29.151Z,86.90
2022-08-03T18:14:16.530Z,87.10
2022-08-03T18:24:50.841Z,87.70
2022-08-03T18:29:55.887Z,88.20
2022-08-03T18:35:04.644Z,88.30
2022-08-03T18:40:09.462Z,89.70
2022-08-03T18:45:57.132Z,88.90
2022-08-03T18:50:59.073Z,90.10
2022-08-03T18:56:14.449Z,90.30
2022-08-03T19:01:58.091Z,91.10
2022-08-03T19:07:03.670Z,92.00
2022-08-03T19:12:33.787Z,91.50
2022-08-03T19:17:43.579Z,91.40
2022-08-03T19:23:11.731Z,92.70
2022-08-03T19:28:20.738Z,93.20
2022-08-03T19:33:55.874Z,93.80
2022-08-03T19:39:09.037Z,94.40
2022-08-03T19:44:27.399Z,95.90
2022-08-03T19:50:01.313Z,97.20
2022-08-03T19:55:20.607Z,97.80
2022-08-03T20:00:37.073Z,98.80
2022-08-03T20:05:52.313Z,99.90
2022-08-03T20:11:07.584Z,99.90
2022-08-03T20:16:13.713Z,99.90
2022-08-03T20:21:22.213Z,99.90
2022-08-03T20:26:35.653Z,99.90
2022-08-03T20:31:44.797Z,99.90
2022-08-03T20:36:54.130Z,99.90
2022-08-03T20:42:07.649Z,99.90
2022-08-03T20:47:24.989Z,99.90
2022-08-03T20:52:28.948Z,99.90
2022-08-03T20:57:34.655Z,99.90
2022-08-03T21:02:43.853Z,99.90
2022-08-03T21:08:04.988Z,99.90
2022-08-03T21:12:56.883Z,87.20
2022-08-03T21:13:25.164Z,99.90
2022-08-03T21:18:32.044Z,99.90
2022-08-03T21:23:48.283Z,99.90
2022-08-03T21:28:56.097Z,99.90
2022-08-03T21:34:01.899Z,99.90
2022-08-03T21:39:07.589Z,99.90
2022-08-03T21:44:29.017Z,99.90
2022-08-03T21:50:05.609Z,99.90
2022-08-03T21:55:04.858Z,99.90
2022-08-03T22:00:14.704Z,99.90
2022-08-03T22:05:19.548Z,99.90
2022-08-03T22:10:45.308Z,99.90
2022-08-03T22:15:50.197Z,99.90
2022-08-03T22:20:54.785Z,99.90
2022-08-03T22:26:10.929Z,99.90
2022-08-03T22:31:30.694Z,99.90
2022-08-03T22:36:42.715Z,99.90
2022-08-03T22:41:47.052Z,99.90
2022-08-03T22:46:51.779Z,99.90
2022-08-03T22:51:55.676Z,99.90
2022-08-03T22:56:59.861Z,99.90
2022-08-03T23:02:15.007Z,99.90
2022-08-03T23:07:31.276Z,99.90
2022-08-03T23:12:36.754Z,99.90
2022-08-03T23:17:57.453Z,99.90
2022-08-03T23:23:02.265Z,99.90
2022-08-03T23:28:11.720Z,99.90
2022-08-03T23:33:17.961Z,99.90
2022-08-03T23:38:25.027Z,99.90
2022-08-03T23:43:51.653Z,99.90
2022-08-03T23:48:56.672Z,99.90
2022-08-03T23:54:08.639Z,99.90
2022-08-03T23:59:21.725Z,99.90
